Time;durP1;ratioP1;P1;durP2;ratioP2;P2;SDS_P1;SDS_P2;PMS_P1;PMS_P2;Temp;Humidity;BMP_temperature;BMP_pressure;BME280_temperature;BME280_humidity;BME280_pressure;Samples;Min_cycle;Max_cycle;Signal;HPM_P1;HPM_P2
2023/03/06 00:00:25;;;;;;;12.13;7.73;;;;;;;;;;4990877;28;20214;-74
2023/03/06 00:02:50;;;;;;;11.13;7.80;;;;;;;;;;4989289;28;20293;-74
2023/03/06 00:05:15;;;;;;;10.77;7.83;;;;;;;;;;4989404;28;20214;-74
2023/03/06 00:07:41;;;;;;;13.57;8.37;;;;;;;;;;4991426;28;20184;-74
2023/03/06 00:10:07;;;;;;;11.40;8.60;;;;;;;;;;4992275;28;20699;-74
2023/03/06 00:12:32;;;;;;;12.37;7.70;;;;;;;;;;4993795;28;20190;-74
2023/03/06 00:14:57;;;;;;;10.67;7.80;;;;;;;;;;4994262;28;20171;-74
2023/03/06 00:17:22;;;;;;;12.63;8.47;;;;;;;;;;4994107;28;20203;-74
2023/03/06 00:19:48;;;;;;;13.00;8.17;;;;;;;;;;4995084;28;20179;-74
2023/03/06 00:22:13;;;;;;;11.90;8.37;;;;;;;;;;4988071;28;20184;-74
2023/03/06 00:24:39;;;;;;;13.93;10.27;;;;;;;;;;4992634;28;20577;-73
2023/03/06 00:27:04;;;;;;;13.47;9.60;;;;;;;;;;4993781;28;20201;-74
2023/03/06 00:29:29;;;;;;;16.53;10.07;;;;;;;;;;4992978;28;20188;-74
2023/03/06 00:31:54;;;;;;;11.97;9.43;;;;;;;;;;4989055;28;20278;-76
2023/03/06 00:34:20;;;;;;;15.00;10.00;;;;;;;;;;4986238;28;20221;-74
2023/03/06 00:36:45;;;;;;;14.17;9.87;;;;;;;;;;4991168;28;20253;-74
2023/03/06 00:39:10;;;;;;;16.33;10.00;;;;;;;;;;4992236;28;20179;-73
2023/03/06 00:41:35;;;;;;;16.97;11.13;;;;;;;;;;4992484;28;20176;-74
2023/03/06 00:44:00;;;;;;;12.13;8.87;;;;;;;;;;4992971;28;20278;-74
2023/03/06 00:46:26;;;;;;;14.33;9.60;;;;;;;;;;4992777;28;20514;-73
2023/03/06 00:48:51;;;;;;;14.93;10.27;;;;;;;;;;4992484;28;20167;-74
2023/03/06 00:51:18;;;;;;;16.97;11.10;;;;;;;;;;4985185;28;20188;-74
2023/03/06 00:53:43;;;;;;;16.53;11.07;;;;;;;;;;4988008;28;20191;-74
2023/03/06 00:56:09;;;;;;;17.67;10.50;;;;;;;;;;4987577;28;20222;-74
2023/03/06 00:58:36;;;;;;;15.17;9.87;;;;;;;;;;4995297;28;20249;-74
2023/03/06 01:01:01;;;;;;;16.47;11.40;;;;;;;;;;4995272;28;20710;-74
2023/03/06 01:03:26;;;;;;;18.27;11.33;;;;;;;;;;4992796;28;20191;-74
2023/03/06 01:05:51;;;;;;;15.37;10.20;;;;;;;;;;4993211;28;20180;-74
2023/03/06 01:08:16;;;;;;;15.43;10.53;;;;;;;;;;4990575;28;20180;-74
2023/03/06 01:10:42;;;;;;;17.00;11.10;;;;;;;;;;4991058;28;20211;-74
2023/03/06 01:13:07;;;;;;;16.90;10.97;;;;;;;;;;4991315;28;20282;-74
2023/03/06 01:15:32;;;;;;;16.00;10.47;;;;;;;;;;4992802;28;20179;-74
2023/03/06 01:17:57;;;;;;;13.73;10.53;;;;;;;;;;4993684;28;20744;-75
2023/03/06 01:20:23;;;;;;;14.73;10.77;;;;;;;;;;4998226;28;20214;-74
2023/03/06 01:22:48;;;;;;;15.33;11.20;;;;;;;;;;4992288;28;20234;-74
2023/03/06 01:25:13;;;;;;;15.07;10.30;;;;;;;;;;4992497;28;20322;-74
2023/03/06 01:27:38;;;;;;;16.53;10.63;;;;;;;;;;4993204;28;20208;-74
2023/03/06 01:30:04;;;;;;;18.87;12.57;;;;;;;;;;4990830;28;20184;-74
2023/03/06 01:32:30;;;;;;;14.33;9.63;;;;;;;;;;4991771;28;20566;-74
2023/03/06 01:34:55;;;;;;;16.17;9.93;;;;;;;;;;5001117;28;20682;-74
2023/03/06 01:37:20;;;;;;;15.00;10.73;;;;;;;;;;4996898;28;20217;-74
2023/03/06 01:39:45;;;;;;;13.57;9.03;;;;;;;;;;4991641;28;20657;-75
2023/03/06 01:42:11;;;;;;;14.13;10.03;;;;;;;;;;4991443;28;20179;-74
2023/03/06 01:44:36;;;;;;;17.77;10.63;;;;;;;;;;4992439;28;20278;-74
2023/03/06 01:47:01;;;;;;;17.30;9.80;;;;;;;;;;4991581;28;20175;-74
2023/03/06 01:49:26;;;;;;;15.83;9.17;;;;;;;;;;4987723;28;20184;-74
2023/03/06 01:51:51;;;;;;;15.07;9.63;;;;;;;;;;4983016;28;20176;-74
2023/03/06 01:54:31;;;;;;;12.53;8.30;;;;;;;;;;4989561;28;20211;-74
2023/03/06 01:57:02;;;;;;;13.77;8.33;;;;;;;;;;4988607;28;20179;-74
2023/03/06 01:59:28;;;;;;;14.40;8.00;;;;;;;;;;4991716;28;20207;-74
2023/03/06 02:01:54;;;;;;;11.97;8.37;;;;;;;;;;5009621;28;20203;-74
2023/03/06 02:04:20;;;;;;;10.87;7.13;;;;;;;;;;4995555;28;20203;-75
2023/03/06 02:06:46;;;;;;;9.20;6.93;;;;;;;;;;4995189;28;20680;-74
2023/03/06 02:09:12;;;;;;;15.97;7.73;;;;;;;;;;4992860;28;20199;-74
2023/03/06 02:11:37;;;;;;;12.40;8.07;;;;;;;;;;4994863;28;20175;-75
2023/03/06 02:14:03;;;;;;;14.80;7.93;;;;;;;;;;4996042;28;20746;-73
2023/03/06 02:16:29;;;;;;;14.10;8.87;;;;;;;;;;4995076;28;20168;-74
2023/03/06 02:18:55;;;;;;;12.50;8.37;;;;;;;;;;4993458;28;20195;-74
2023/03/06 02:21:25;;;;;;;13.13;8.63;;;;;;;;;;4993585;28;20489;-73
2023/03/06 02:23:51;;;;;;;15.60;8.30;;;;;;;;;;4994466;28;20208;-76
2023/03/06 02:26:16;;;;;;;12.47;9.10;;;;;;;;;;4994722;28;20183;-74
2023/03/06 02:28:42;;;;;;;14.13;8.43;;;;;;;;;;4994356;28;20179;-74
2023/03/06 02:31:07;;;;;;;12.23;8.20;;;;;;;;;;4994155;28;20211;-74
2023/03/06 02:33:32;;;;;;;12.70;8.83;;;;;;;;;;4995219;28;20211;-74
2023/03/06 02:35:59;;;;;;;11.50;8.33;;;;;;;;;;4994164;28;20218;-73
2023/03/06 02:38:30;;;;;;;12.27;9.20;;;;;;;;;;4993780;28;20215;-74
2023/03/06 02:40:56;;;;;;;14.33;9.43;;;;;;;;;;4993821;28;20180;-74
2023/03/06 02:43:24;;;;;;;15.23;9.23;;;;;;;;;;4994249;28;20231;-74
2023/03/06 02:45:50;;;;;;;13.63;9.60;;;;;;;;;;4994260;28;20259;-74
2023/03/06 02:48:16;;;;;;;15.40;10.00;;;;;;;;;;4995428;28;20183;-74
2023/03/06 02:50:42;;;;;;;14.97;9.53;;;;;;;;;;4995209;28;20187;-75
2023/03/06 02:53:07;;;;;;;15.73;10.37;;;;;;;;;;4988083;28;20203;-74
2023/03/06 02:55:33;;;;;;;14.53;10.00;;;;;;;;;;4991535;28;20222;-74
2023/03/06 02:57:58;;;;;;;14.57;10.17;;;;;;;;;;4993578;28;20574;-74
2023/03/06 03:00:24;;;;;;;12.93;9.73;;;;;;;;;;4994297;28;20552;-73
2023/03/06 03:02:49;;;;;;;14.73;10.13;;;;;;;;;;4997733;28;20191;-76
2023/03/06 03:05:14;;;;;;;14.43;9.87;;;;;;;;;;4994019;28;20172;-75
2023/03/06 03:07:40;;;;;;;13.37;9.77;;;;;;;;;;4993684;28;20287;-76
2023/03/06 03:10:05;;;;;;;16.80;10.73;;;;;;;;;;4994395;28;20190;-75
2023/03/06 03:12:31;;;;;;;15.80;10.60;;;;;;;;;;4994490;28;20172;-76
2023/03/06 03:14:56;;;;;;;15.07;10.57;;;;;;;;;;4994860;28;20203;-76
2023/03/06 03:17:21;;;;;;;18.30;11.40;;;;;;;;;;4994933;28;20203;-73
2023/03/06 03:19:47;;;;;;;20.70;13.80;;;;;;;;;;4996102;28;20532;-73
2023/03/06 03:22:12;;;;;;;20.20;12.33;;;;;;;;;;4991656;28;20649;-75
2023/03/06 03:24:38;;;;;;;17.27;11.77;;;;;;;;;;5004868;28;20196;-73
2023/03/06 03:27:04;;;;;;;18.53;12.43;;;;;;;;;;4996226;28;20508;-76
2023/03/06 03:29:29;;;;;;;19.90;11.77;;;;;;;;;;4993395;28;20183;-76
2023/03/06 03:31:54;;;;;;;15.87;11.33;;;;;;;;;;4993244;28;20726;-73
2023/03/06 03:34:19;;;;;;;16.70;11.27;;;;;;;;;;4994055;28;20219;-76
2023/03/06 03:36:45;;;;;;;17.77;11.37;;;;;;;;;;4992641;28;20226;-75
2023/03/06 03:39:10;;;;;;;16.73;11.10;;;;;;;;;;4993706;28;20657;-75
2023/03/06 03:41:35;;;;;;;19.03;10.57;;;;;;;;;;4994751;28;20183;-76
2023/03/06 03:44:01;;;;;;;19.73;11.03;;;;;;;;;;4993464;28;20195;-75
2023/03/06 03:46:26;;;;;;;15.50;10.37;;;;;;;;;;4994239;28;20265;-75
2023/03/06 03:48:51;;;;;;;17.07;9.40;;;;;;;;;;4992943;28;20180;-75
2023/03/06 03:51:16;;;;;;;15.50;10.13;;;;;;;;;;4990093;28;20850;-76
2023/03/06 03:53:43;;;;;;;16.40;9.80;;;;;;;;;;4989600;28;20242;-73
2023/03/06 03:56:08;;;;;;;18.50;9.67;;;;;;;;;;4995062;28;20261;-73
2023/03/06 03:58:33;;;;;;;12.23;8.60;;;;;;;;;;5007008;28;20230;-73
2023/03/06 04:00:59;;;;;;;12.83;9.00;;;;;;;;;;5001486;28;20189;-73
2023/03/06 04:03:24;;;;;;;12.10;8.07;;;;;;;;;;5001142;28;20195;-75
2023/03/06 04:05:52;;;;;;;11.20;8.30;;;;;;;;;;5006600;28;20238;-74
2023/03/06 04:08:17;;;;;;;12.70;8.20;;;;;;;;;;5003644;28;20648;-74
2023/03/06 04:10:43;;;;;;;11.67;7.57;;;;;;;;;;5002139;28;20189;-75
2023/03/06 04:13:08;;;;;;;12.30;7.60;;;;;;;;;;5004758;28;20207;-75
2023/03/06 04:15:33;;;;;;;12.33;8.13;;;;;;;;;;5005738;28;20179;-75
2023/03/06 04:17:58;;;;;;;10.87;6.97;;;;;;;;;;5009764;28;20310;-75
2023/03/06 04:20:24;;;;;;;9.97;6.47;;;;;;;;;;5003729;28;20229;-75
2023/03/06 04:22:50;;;;;;;8.83;6.10;;;;;;;;;;5002660;28;20202;-74
2023/03/06 04:25:15;;;;;;;10.77;6.63;;;;;;;;;;5002427;28;20182;-75
2023/03/06 04:27:40;;;;;;;9.83;6.40;;;;;;;;;;5005372;28;20186;-74
2023/03/06 04:30:06;;;;;;;8.73;6.23;;;;;;;;;;5002262;28;20190;-74
2023/03/06 04:32:31;;;;;;;8.23;5.10;;;;;;;;;;5002521;28;20186;-75
2023/03/06 04:34:56;;;;;;;8.57;4.37;;;;;;;;;;5000169;28;20178;-75
2023/03/06 04:37:23;;;;;;;7.20;4.87;;;;;;;;;;4991893;28;20227;-75
2023/03/06 04:39:48;;;;;;;9.07;4.77;;;;;;;;;;5004583;28;20176;-75
2023/03/06 04:42:13;;;;;;;7.03;4.87;;;;;;;;;;5000893;28;20182;-75
2023/03/06 04:44:39;;;;;;;7.57;4.93;;;;;;;;;;4999452;28;20267;-75
2023/03/06 04:47:04;;;;;;;7.33;4.37;;;;;;;;;;4992653;28;20171;-75
2023/03/06 04:49:29;;;;;;;6.70;4.70;;;;;;;;;;4991980;28;20184;-75
2023/03/06 04:51:54;;;;;;;8.13;5.60;;;;;;;;;;4986342;28;20270;-75
2023/03/06 04:54:19;;;;;;;8.00;4.97;;;;;;;;;;4980239;28;20195;-75
2023/03/06 04:56:45;;;;;;;8.90;5.53;;;;;;;;;;4992395;28;20222;-75
2023/03/06 04:59:10;;;;;;;7.80;5.20;;;;;;;;;;4990926;28;20215;-75
2023/03/06 05:01:35;;;;;;;7.17;5.60;;;;;;;;;;4991979;28;20176;-76
2023/03/06 05:04:00;;;;;;;7.70;5.30;;;;;;;;;;4991847;28;20202;-75
2023/03/06 05:06:26;;;;;;;7.80;5.87;;;;;;;;;;4991230;28;20179;-75
2023/03/06 05:08:51;;;;;;;9.77;6.07;;;;;;;;;;4990107;28;20241;-75
2023/03/06 05:11:16;;;;;;;7.57;6.53;;;;;;;;;;5008033;28;20310;-75
2023/03/06 05:13:41;;;;;;;10.13;6.50;;;;;;;;;;4991308;28;20211;-76
2023/03/06 05:16:07;;;;;;;10.40;6.70;;;;;;;;;;4993350;28;20187;-75
2023/03/06 05:18:33;;;;;;;8.33;6.30;;;;;;;;;;4992157;28;20222;-75
2023/03/06 05:20:58;;;;;;;7.73;6.37;;;;;;;;;;4995167;28;20183;-76
2023/03/06 05:23:27;;;;;;;9.97;6.77;;;;;;;;;;4985557;28;20203;-75
2023/03/06 05:25:52;;;;;;;10.20;6.40;;;;;;;;;;4994079;28;20184;-75
2023/03/06 05:28:18;;;;;;;10.63;7.17;;;;;;;;;;4993652;28;20210;-76
2023/03/06 05:30:43;;;;;;;7.50;6.70;;;;;;;;;;4993647;28;20179;-75
2023/03/06 05:33:08;;;;;;;10.17;7.00;;;;;;;;;;4991651;28;20208;-74
2023/03/06 05:35:33;;;;;;;8.43;6.47;;;;;;;;;;4997020;28;20187;-74
2023/03/06 05:37:59;;;;;;;8.67;6.90;;;;;;;;;;4996691;28;20677;-74
2023/03/06 05:40:24;;;;;;;8.17;6.97;;;;;;;;;;4996752;28;20187;-74
2023/03/06 05:42:49;;;;;;;10.17;6.80;;;;;;;;;;4995937;28;20621;-75
2023/03/06 05:45:15;;;;;;;10.10;6.90;;;;;;;;;;4997191;28;20274;-74
2023/03/06 05:47:40;;;;;;;11.20;7.50;;;;;;;;;;4997351;28;20210;-74
2023/03/06 05:50:07;;;;;;;9.93;7.27;;;;;;;;;;4995695;28;20231;-73
2023/03/06 05:52:32;;;;;;;11.30;7.57;;;;;;;;;;5004613;28;20191;-73
2023/03/06 05:54:57;;;;;;;9.87;7.40;;;;;;;;;;4995584;28;20180;-75
2023/03/06 05:57:23;;;;;;;11.93;7.67;;;;;;;;;;4994738;28;20707;-75
2023/03/06 05:59:48;;;;;;;10.73;7.97;;;;;;;;;;4995521;28;20172;-75
2023/03/06 06:02:14;;;;;;;10.87;7.80;;;;;;;;;;4996966;28;20175;-73
2023/03/06 06:04:39;;;;;;;10.67;7.20;;;;;;;;;;4995738;28;20246;-72
2023/03/06 06:07:05;;;;;;;9.17;6.53;;;;;;;;;;4988587;28;20600;-73
2023/03/06 06:09:30;;;;;;;9.07;6.03;;;;;;;;;;5006576;28;20180;-72
2023/03/06 06:11:57;;;;;;;8.77;6.83;;;;;;;;;;4992096;28;20559;-75
2023/03/06 06:14:22;;;;;;;8.40;6.63;;;;;;;;;;4994345;28;20258;-73
2023/03/06 06:16:48;;;;;;;9.10;7.03;;;;;;;;;;4992730;28;20179;-75
2023/03/06 06:19:22;;;;;;;8.80;6.63;;;;;;;;;;4994493;28;20234;-73
2023/03/06 06:21:49;;;;;;;12.63;8.23;;;;;;;;;;4991816;28;20638;-74
2023/03/06 06:24:15;;;;;;;10.10;6.90;;;;;;;;;;4993553;28;20207;-74
2023/03/06 06:26:41;;;;;;;8.93;6.47;;;;;;;;;;4995458;28;20211;-74
2023/03/06 06:29:06;;;;;;;10.67;7.83;;;;;;;;;;4995302;28;20230;-74
2023/03/06 06:31:31;;;;;;;10.10;7.57;;;;;;;;;;4997577;28;20633;-74
2023/03/06 06:33:57;;;;;;;11.03;7.17;;;;;;;;;;4995081;28;20215;-74
2023/03/06 06:36:22;;;;;;;12.40;8.60;;;;;;;;;;4993784;28;20190;-74
2023/03/06 06:38:47;;;;;;;9.87;7.30;;;;;;;;;;4995161;28;20239;-74
2023/03/06 06:41:13;;;;;;;10.10;7.27;;;;;;;;;;4994990;28;20176;-73
2023/03/06 06:43:38;;;;;;;9.67;7.70;;;;;;;;;;4993941;28;20200;-74
2023/03/06 06:46:03;;;;;;;8.20;7.30;;;;;;;;;;4995480;28;20202;-74
2023/03/06 06:48:29;;;;;;;9.37;7.30;;;;;;;;;;4995369;28;20661;-74
2023/03/06 06:50:54;;;;;;;11.00;7.33;;;;;;;;;;4995714;28;20175;-74
2023/03/06 06:53:20;;;;;;;15.67;6.90;;;;;;;;;;4995691;28;20261;-74
2023/03/06 06:55:45;;;;;;;11.83;7.13;;;;;;;;;;4996609;28;20171;-74
2023/03/06 06:58:10;;;;;;;10.37;7.27;;;;;;;;;;4995920;28;20194;-73
2023/03/06 07:00:35;;;;;;;11.00;8.73;;;;;;;;;;4990222;28;20616;-73
2023/03/06 07:03:00;;;;;;;21.77;10.47;;;;;;;;;;4987461;28;20727;-74
2023/03/06 07:05:26;;;;;;;7.93;6.43;;;;;;;;;;4994361;28;20190;-73
2023/03/06 07:07:51;;;;;;;7.90;6.80;;;;;;;;;;4995897;28;20648;-74
2023/03/06 07:10:16;;;;;;;7.57;5.83;;;;;;;;;;4995754;28;20176;-73
2023/03/06 07:12:42;;;;;;;8.23;5.20;;;;;;;;;;4991322;28;20629;-73
2023/03/06 07:15:07;;;;;;;7.23;5.60;;;;;;;;;;4994274;28;20179;-73
2023/03/06 07:17:32;;;;;;;7.57;4.70;;;;;;;;;;4994930;28;20669;-74
2023/03/06 07:19:58;;;;;;;6.27;4.83;;;;;;;;;;4994418;28;20163;-74
2023/03/06 07:22:23;;;;;;;6.27;5.17;;;;;;;;;;4995642;28;20194;-73
2023/03/06 07:24:49;;;;;;;10.97;5.87;;;;;;;;;;4995438;28;20175;-73
2023/03/06 07:27:14;;;;;;;6.23;4.97;;;;;;;;;;4993611;28;20179;-73
2023/03/06 07:29:41;;;;;;;7.43;5.47;;;;;;;;;;4994792;28;20183;-73
2023/03/06 07:32:06;;;;;;;5.57;4.53;;;;;;;;;;4995369;28;20182;-73
2023/03/06 07:34:31;;;;;;;6.53;5.00;;;;;;;;;;4994421;28;20219;-74
2023/03/06 07:36:56;;;;;;;7.73;4.67;;;;;;;;;;4994832;28;20179;-73
2023/03/06 07:39:22;;;;;;;6.07;4.20;;;;;;;;;;4992593;28;20190;-73
2023/03/06 07:41:47;;;;;;;5.03;3.47;;;;;;;;;;4991816;28;20595;-73
2023/03/06 07:44:12;;;;;;;7.33;4.17;;;;;;;;;;4993880;28;20188;-73
2023/03/06 07:46:37;;;;;;;8.33;3.77;;;;;;;;;;4992511;28;20176;-73
2023/03/06 07:49:03;;;;;;;6.17;3.50;;;;;;;;;;4991065;28;20214;-74
2023/03/06 07:51:28;;;;;;;4.83;3.63;;;;;;;;;;4993030;28;20179;-73
2023/03/06 07:53:53;;;;;;;5.17;3.30;;;;;;;;;;4994840;28;20624;-73
2023/03/06 07:56:18;;;;;;;5.70;2.60;;;;;;;;;;5001877;28;20616;-72
2023/03/06 07:58:45;;;;;;;3.97;2.67;;;;;;;;;;4993007;28;20219;-73
2023/03/06 08:01:11;;;;;;;4.87;2.47;;;;;;;;;;4989081;28;20187;-74
2023/03/06 08:03:37;;;;;;;5.33;3.30;;;;;;;;;;4989340;28;20213;-75
2023/03/06 08:06:12;;;;;;;3.83;2.80;;;;;;;;;;4992904;28;20168;-74
2023/03/06 08:08:38;;;;;;;4.87;2.60;;;;;;;;;;5008753;28;20622;-73
2023/03/06 08:11:03;;;;;;;4.17;2.63;;;;;;;;;;4993554;28;20176;-73
2023/03/06 08:13:29;;;;;;;4.13;2.30;;;;;;;;;;4993700;28;20261;-74
2023/03/06 08:15:55;;;;;;;4.10;3.00;;;;;;;;;;4993540;28;20183;-74
2023/03/06 08:18:20;;;;;;;4.27;1.93;;;;;;;;;;4993590;28;20759;-74
2023/03/06 08:20:46;;;;;;;4.73;1.90;;;;;;;;;;4994065;28;20259;-74
2023/03/06 08:23:11;;;;;;;2.23;1.87;;;;;;;;;;4994632;28;20223;-74
2023/03/06 08:25:36;;;;;;;2.20;1.60;;;;;;;;;;4991373;28;20230;-74
2023/03/06 08:28:01;;;;;;;2.00;1.43;;;;;;;;;;4994831;28;20258;-74
2023/03/06 08:30:28;;;;;;;2.83;1.90;;;;;;;;;;4994315;28;20172;-74
2023/03/06 08:32:53;;;;;;;2.80;1.77;;;;;;;;;;4993797;28;20274;-74
2023/03/06 08:35:18;;;;;;;1.70;1.27;;;;;;;;;;4983905;28;20700;-74
2023/03/06 08:37:44;;;;;;;1.83;1.50;;;;;;;;;;4983481;28;20412;-74
2023/03/06 08:40:09;;;;;;;1.30;1.20;;;;;;;;;;4993864;28;20171;-74
2023/03/06 08:42:34;;;;;;;2.67;1.30;;;;;;;;;;4993898;28;20263;-75
2023/03/06 08:45:00;;;;;;;2.27;1.40;;;;;;;;;;4992521;28;20164;-74
2023/03/06 08:47:25;;;;;;;1.60;1.40;;;;;;;;;;5008667;28;20183;-75
2023/03/06 08:49:50;;;;;;;1.43;1.30;;;;;;;;;;4993394;28;20421;-74
2023/03/06 08:52:15;;;;;;;1.30;1.00;;;;;;;;;;5008296;28;20176;-73
2023/03/06 08:54:41;;;;;;;2.87;2.00;;;;;;;;;;4993129;28;20210;-74
2023/03/06 08:57:06;;;;;;;1.60;1.03;;;;;;;;;;4992423;28;20278;-74
2023/03/06 08:59:31;;;;;;;2.10;1.30;;;;;;;;;;4993149;28;20646;-74
2023/03/06 09:01:56;;;;;;;2.60;1.30;;;;;;;;;;4999798;28;20178;-74
2023/03/06 09:04:22;;;;;;;1.13;1.00;;;;;;;;;;4993398;28;20286;-73
2023/03/06 09:06:47;;;;;;;1.77;1.20;;;;;;;;;;4993423;28;20175;-74
2023/03/06 09:09:12;;;;;;;2.60;1.07;;;;;;;;;;4992111;28;20238;-74
2023/03/06 09:11:38;;;;;;;1.33;1.00;;;;;;;;;;4993046;28;20783;-73
2023/03/06 09:14:04;;;;;;;1.60;0.70;;;;;;;;;;4993401;28;20199;-74
2023/03/06 09:16:29;;;;;;;0.80;0.70;;;;;;;;;;4991059;28;20183;-74
2023/03/06 09:18:56;;;;;;;1.37;0.93;;;;;;;;;;4985586;28;20255;-74
2023/03/06 09:21:22;;;;;;;4.03;1.10;;;;;;;;;;4994756;28;20230;-74
2023/03/06 09:23:47;;;;;;;1.33;0.70;;;;;;;;;;4994879;28;20191;-74
2023/03/06 09:26:13;;;;;;;1.73;0.80;;;;;;;;;;4992986;28;20227;-74
2023/03/06 09:28:38;;;;;;;1.00;0.70;;;;;;;;;;5009386;28;20542;-74
2023/03/06 09:31:11;;;;;;;0.83;0.63;;;;;;;;;;4994154;28;20215;-73
2023/03/06 09:33:36;;;;;;;2.63;0.70;;;;;;;;;;4993144;28;20223;-74
2023/03/06 09:36:02;;;;;;;1.63;1.00;;;;;;;;;;4992298;28;20164;-74
2023/03/06 09:38:27;;;;;;;2.20;0.80;;;;;;;;;;4988178;28;20562;-74
2023/03/06 09:41:03;;;;;;;1.27;0.80;;;;;;;;;;4992231;28;20172;-73
2023/03/06 09:43:35;;;;;;;0.70;0.60;;;;;;;;;;4992846;28;20195;-74
2023/03/06 09:46:05;;;;;;;0.83;0.63;;;;;;;;;;4992084;28;20501;-75
2023/03/06 09:48:37;;;;;;;3.33;0.70;;;;;;;;;;4992136;28;20183;-75
2023/03/06 09:51:11;;;;;;;1.50;0.60;;;;;;;;;;4993039;28;20215;-75
2023/03/06 09:53:40;;;;;;;1.40;0.70;;;;;;;;;;5007936;28;20203;-75
2023/03/06 09:56:12;;;;;;;1.15;0.60;;;;;;;;;;4989820;28;20183;-75
2023/03/06 09:58:40;;;;;;;0.50;0.50;;;;;;;;;;4993765;28;20220;-74
2023/03/06 10:01:12;;;;;;;1.10;0.50;;;;;;;;;;5008605;28;20178;-74
2023/03/06 10:03:44;;;;;;;1.20;0.50;;;;;;;;;;4993421;28;20199;-75
2023/03/06 10:06:12;;;;;;;1.77;0.70;;;;;;;;;;4993154;28;20278;-75
2023/03/06 10:08:56;;;;;;;1.00;0.50;;;;;;;;;;4991704;28;20639;-75
2023/03/06 10:11:40;;;;;;;2.35;0.68;;;;;;;;;;4988158;28;20301;-74
2023/03/06 10:14:21;;;;;;;1.05;0.80;;;;;;;;;;4992787;28;20204;-75
2023/03/06 10:16:46;;;;;;;1.20;0.73;;;;;;;;;;4993310;28;20267;-74
2023/03/06 10:19:14;;;;;;;1.85;0.80;;;;;;;;;;4992933;28;20290;-74
2023/03/06 10:21:42;;;;;;;0.70;0.50;;;;;;;;;;4994734;28;20180;-75
2023/03/06 10:24:20;;;;;;;0.88;0.60;;;;;;;;;;4994462;28;20218;-75
2023/03/06 10:26:48;;;;;;;1.33;0.73;;;;;;;;;;4996168;28;20187;-75
2023/03/06 10:29:21;;;;;;;1.77;0.75;;;;;;;;;;5011178;28;20198;-74
2023/03/06 10:31:50;;;;;;;1.00;0.63;;;;;;;;;;4995435;28;20215;-75
2023/03/06 10:34:23;;;;;;;1.90;0.80;;;;;;;;;;4995661;28;20222;-74
2023/03/06 10:36:48;;;;;;;4.22;0.90;;;;;;;;;;4997426;28;20187;-74
2023/03/06 10:39:18;;;;;;;1.80;0.90;;;;;;;;;;4987037;28;20708;-74
2023/03/06 10:41:44;;;;;;;1.83;0.90;;;;;;;;;;5009388;28;20270;-74
2023/03/06 10:44:12;;;;;;;3.50;1.03;;;;;;;;;;4994995;28;20277;-74
2023/03/06 10:46:41;;;;;;;2.70;0.77;;;;;;;;;;4995624;28;20206;-75
2023/03/06 10:49:26;;;;;;;2.13;0.87;;;;;;;;;;4995114;28;20183;-74
2023/03/06 10:51:56;;;;;;;1.23;0.87;;;;;;;;;;4995437;28;20202;-74
2023/03/06 10:54:21;;;;;;;1.23;0.80;;;;;;;;;;4995644;28;20211;-74
2023/03/06 10:56:46;;;;;;;1.42;0.82;;;;;;;;;;4993666;28;20563;-75
2023/03/06 10:59:16;;;;;;;1.33;0.70;;;;;;;;;;4995468;28;20200;-75
2023/03/06 11:01:52;;;;;;;1.90;0.70;;;;;;;;;;4985698;28;20609;-73
2023/03/06 11:04:31;;;;;;;1.23;0.77;;;;;;;;;;4994654;28;20775;-74
2023/03/06 11:07:05;;;;;;;2.10;0.70;;;;;;;;;;4988955;28;20180;-74
2023/03/06 11:09:32;;;;;;;1.80;0.80;;;;;;;;;;4995833;28;20210;-74
2023/03/06 11:12:19;;;;;;;4.60;1.00;;;;;;;;;;5010898;28;20171;-74
2023/03/06 11:14:44;;;;;;;1.10;0.70;;;;;;;;;;4995239;28;20195;-74
2023/03/06 11:17:25;;;;;;;1.60;0.90;;;;;;;;;;4993109;28;20179;-75
2023/03/06 11:20:05;;;;;;;2.10;0.80;;;;;;;;;;4993845;28;20646;-74
2023/03/06 11:22:30;;;;;;;2.63;0.98;;;;;;;;;;4998391;28;20175;-74
2023/03/06 11:24:57;;;;;;;2.13;1.57;;;;;;;;;;4995949;28;20178;-74
2023/03/06 11:27:33;;;;;;;1.33;1.20;;;;;;;;;;4994090;28;20277;-74
2023/03/06 11:30:00;;;;;;;1.73;1.30;;;;;;;;;;4977519;28;20179;-74
2023/03/06 11:32:27;;;;;;;1.77;1.63;;;;;;;;;;4992822;28;20291;-74
2023/03/06 11:34:55;;;;;;;5.17;1.77;;;;;;;;;;4993760;28;20273;-75
2023/03/06 11:37:46;;;;;;;3.83;2.07;;;;;;;;;;4995186;28;20184;-75
2023/03/06 11:40:15;;;;;;;1.80;1.60;;;;;;;;;;5008507;28;20171;-75
2023/03/06 11:43:01;;;;;;;3.33;1.73;;;;;;;;;;4994413;28;20249;-75
2023/03/06 11:45:41;;;;;;;1.93;1.70;;;;;;;;;;4995846;28;20560;-75
2023/03/06 11:48:12;;;;;;;3.00;2.23;;;;;;;;;;4993141;28;20187;-75
2023/03/06 11:50:40;;;;;;;2.27;2.07;;;;;;;;;;4990535;28;20176;-75
2023/03/06 11:53:09;;;;;;;3.50;2.37;;;;;;;;;;4993178;28;20219;-75
2023/03/06 11:55:40;;;;;;;3.13;2.37;;;;;;;;;;4992535;28;20190;-75
2023/03/06 11:58:09;;;;;;;3.93;2.70;;;;;;;;;;4975168;28;20196;-76
2023/03/06 12:00:34;;;;;;;5.93;2.97;;;;;;;;;;4983445;28;20191;-75
2023/03/06 12:03:11;;;;;;;4.90;2.90;;;;;;;;;;4993477;28;20801;-75
2023/03/06 12:05:41;;;;;;;5.00;2.93;;;;;;;;;;5002351;28;20176;-75
2023/03/06 12:08:21;;;;;;;3.30;2.97;;;;;;;;;;4996050;28;20183;-75
2023/03/06 12:10:49;;;;;;;4.10;3.10;;;;;;;;;;4992443;28;20176;-75
2023/03/06 12:13:33;;;;;;;6.87;3.33;;;;;;;;;;4993126;28;20202;-75
2023/03/06 12:16:01;;;;;;;4.27;3.20;;;;;;;;;;4993168;28;20203;-75
2023/03/06 12:18:49;;;;;;;3.17;2.87;;;;;;;;;;4993281;28;20637;-75
2023/03/06 12:21:27;;;;;;;4.00;3.10;;;;;;;;;;4994990;28;20649;-75
2023/03/06 12:24:11;;;;;;;5.10;3.23;;;;;;;;;;5002386;28;20680;-75
2023/03/06 12:26:36;;;;;;;3.53;3.22;;;;;;;;;;4994733;28;20172;-75
2023/03/06 12:29:01;;;;;;;3.88;3.33;;;;;;;;;;4993514;28;20180;-75
2023/03/06 12:31:44;;;;;;;5.63;3.93;;;;;;;;;;4984759;28;20219;-74
2023/03/06 12:34:16;;;;;;;6.50;4.13;;;;;;;;;;4992940;28;20234;-75
2023/03/06 12:37:00;;;;;;;4.87;4.33;;;;;;;;;;4994599;28;20250;-75
2023/03/06 12:39:27;;;;;;;7.27;5.20;;;;;;;;;;5005746;28;20207;-75
2023/03/06 12:42:07;;;;;;;10.67;6.17;;;;;;;;;;4993311;28;20669;-74
2023/03/06 12:44:47;;;;;;;6.23;4.40;;;;;;;;;;4992649;28;20199;-74
2023/03/06 12:47:16;;;;;;;6.27;5.07;;;;;;;;;;4994677;28;20175;-74
2023/03/06 12:49:42;;;;;;;7.70;5.77;;;;;;;;;;4993624;28;20175;-75
2023/03/06 12:52:09;;;;;;;6.97;5.47;;;;;;;;;;4993399;28;20288;-75
2023/03/06 12:54:38;;;;;;;5.60;4.70;;;;;;;;;;4990399;28;20352;-74
2023/03/06 12:57:05;;;;;;;7.10;5.83;;;;;;;;;;5006826;28;20660;-75
2023/03/06 12:59:33;;;;;;;8.00;5.37;;;;;;;;;;4994445;28;20180;-75
2023/03/06 13:02:01;;;;;;;6.57;5.13;;;;;;;;;;4988295;28;20190;-75
2023/03/06 13:04:27;;;;;;;9.33;6.07;;;;;;;;;;4988438;28;20199;-76
2023/03/06 13:06:53;;;;;;;9.57;6.17;;;;;;;;;;4992989;28;20179;-76
2023/03/06 13:09:41;;;;;;;6.23;5.30;;;;;;;;;;4992944;28;20183;-76
2023/03/06 13:12:17;;;;;;;6.80;5.83;;;;;;;;;;4992982;28;20258;-75
2023/03/06 13:14:43;;;;;;;7.77;6.27;;;;;;;;;;4992726;28;20349;-75
2023/03/06 13:17:27;;;;;;;7.30;5.57;;;;;;;;;;4993456;28;20233;-75
2023/03/06 13:20:12;;;;;;;7.43;5.50;;;;;;;;;;5001302;28;20182;-75
2023/03/06 13:22:38;;;;;;;7.70;5.80;;;;;;;;;;4983685;28;20624;-76
2023/03/06 13:25:16;;;;;;;5.20;4.70;;;;;;;;;;4993989;28;20187;-75
2023/03/06 13:28:02;;;;;;;6.20;4.57;;;;;;;;;;4993765;28;20183;-75
2023/03/06 13:30:27;;;;;;;6.20;4.77;;;;;;;;;;4985672;28;20637;-76
2023/03/06 13:32:53;;;;;;;5.60;3.88;;;;;;;;;;4987321;28;20265;-75
2023/03/06 13:35:34;;;;;;;6.32;4.15;;;;;;;;;;4994941;28;20168;-75
2023/03/06 13:38:00;;;;;;;5.80;4.47;;;;;;;;;;4991522;28;20644;-75
2023/03/06 13:40:26;;;;;;;4.72;3.13;;;;;;;;;;4992033;28;20255;-75
2023/03/06 13:42:58;;;;;;;4.30;3.40;;;;;;;;;;4993991;28;20203;-75
2023/03/06 13:45:42;;;;;;;6.57;3.90;;;;;;;;;;4997560;28;20788;-75
2023/03/06 13:48:22;;;;;;;4.07;3.17;;;;;;;;;;4997155;28;20261;-75
2023/03/06 13:50:48;;;;;;;5.70;3.23;;;;;;;;;;4994102;28;20203;-75
2023/03/06 13:53:25;;;;;;;5.40;3.20;;;;;;;;;;4992932;28;20628;-75
2023/03/06 13:55:57;;;;;;;6.43;4.07;;;;;;;;;;4995361;28;20671;-75
2023/03/06 13:58:33;;;;;;;6.40;3.80;;;;;;;;;;4993933;28;20553;-75
2023/03/06 14:01:01;;;;;;;7.77;4.70;;;;;;;;;;4996325;28;20178;-75
2023/03/06 14:03:26;;;;;;;6.63;4.30;;;;;;;;;;4996411;28;20199;-74
2023/03/06 14:05:52;;;;;;;5.90;3.67;;;;;;;;;;4996165;28;20175;-74
2023/03/06 14:08:18;;;;;;;5.60;3.63;;;;;;;;;;4995052;28;20266;-74
2023/03/06 14:10:44;;;;;;;5.87;3.60;;;;;;;;;;4995692;28;20680;-75
2023/03/06 14:13:13;;;;;;;6.70;4.40;;;;;;;;;;4993845;28;20207;-75
2023/03/06 14:15:45;;;;;;;6.30;4.20;;;;;;;;;;5002272;28;20555;-75
2023/03/06 14:18:14;;;;;;;5.80;4.13;;;;;;;;;;4996222;28;20231;-75
2023/03/06 14:20:43;;;;;;;7.13;4.70;;;;;;;;;;4995371;28;20192;-74
2023/03/06 14:23:21;;;;;;;6.23;4.60;;;;;;;;;;4994984;28;20214;-75
2023/03/06 14:25:50;;;;;;;7.33;4.90;;;;;;;;;;4994133;28;20179;-75
2023/03/06 14:28:28;;;;;;;7.00;4.60;;;;;;;;;;4995653;28;20254;-75
2023/03/06 14:30:54;;;;;;;9.40;5.47;;;;;;;;;;4994238;28;20258;-75
2023/03/06 14:33:26;;;;;;;6.17;4.20;;;;;;;;;;4988471;28;20693;-74
2023/03/06 14:35:51;;;;;;;6.57;4.67;;;;;;;;;;4999667;28;20183;-75
2023/03/06 14:38:16;;;;;;;6.53;3.83;;;;;;;;;;4996222;28;20199;-74